Time;durP1;ratioP1;P1;durP2;ratioP2;P2;SDS_P1;SDS_P2;PMS_P1;PMS_P2;Temp;Humidity;BMP_temperature;BMP_pressure;BME280_temperature;BME280_humidity;BME280_pressure;Samples;Min_cycle;Max_cycle;Signal;HPM_P1;HPM_P2
2024/03/21 00:00:17;;;;;;;;;;;;;;;3.47;71.06;100710.14;108797;1268;25278;-85
2024/03/21 00:03:43;;;;;;;;;;;;;;;3.42;71.07;100709.90;108800;1268;22508;-85
2024/03/21 00:06:30;;;;;;;;;;;;;;;3.37;71.11;100712.98;108764;1251;22514;-83
2024/03/21 00:09:18;;;;;;;;;;;;;;;3.32;71.04;100709.98;108860;1266;22504;-83
2024/03/21 00:12:06;;;;;;;;;;;;;;;3.27;71.12;100712.66;108749;1268;22577;-84
2024/03/21 00:14:53;;;;;;;;;;;;;;;3.23;71.18;100708.16;108737;1268;25310;-86
2024/03/21 00:17:40;;;;;;;;;;;;;;;3.20;71.26;100706.30;108680;1268;23754;-85
2024/03/21 00:20:29;;;;;;;;;;;;;;;3.16;71.11;100708.66;108761;1268;22507;-85
2024/03/21 00:23:16;;;;;;;;;;;;;;;3.12;71.38;100707.85;108842;1267;22507;-85
2024/03/21 00:26:03;;;;;;;;;;;;;;;3.08;71.39;100703.02;108841;1267;24234;-85
2024/03/21 00:28:50;;;;;;;;;;;;;;;3.06;71.43;100705.02;108845;1267;24988;-84
2024/03/21 00:31:39;;;;;;;;;;;;;;;3.03;71.45;100701.52;108456;1269;22543;-85
2024/03/21 00:34:26;;;;;;;;;;;;;;;2.99;71.44;100701.50;108823;1268;22665;-85
2024/03/21 00:37:13;;;;;;;;;;;;;;;2.94;71.66;100705.13;108751;1268;22508;-85
2024/03/21 00:40:00;;;;;;;;;;;;;;;2.85;72.46;100703.05;108678;1268;22689;-84
2024/03/21 00:42:47;;;;;;;;;;;;;;;2.79;72.28;100695.65;108920;1268;22536;-84
2024/03/21 00:45:35;;;;;;;;;;;;;;;2.78;72.29;100695.58;108796;1269;23240;-85
2024/03/21 00:48:22;;;;;;;;;;;;;;;2.77;72.26;100697.11;108769;1269;22642;-84
2024/03/21 00:51:09;;;;;;;;;;;;;;;2.75;72.30;100689.95;108721;1268;22532;-84
2024/03/21 00:53:56;;;;;;;;;;;;;;;2.73;72.31;100688.72;109021;1267;22622;-85
2024/03/21 00:56:44;;;;;;;;;;;;;;;2.70;72.36;100682.62;108970;1262;22510;-84
2024/03/21 00:59:31;;;;;;;;;;;;;;;2.69;72.36;100683.44;108733;1268;22534;-84
2024/03/21 01:02:19;;;;;;;;;;;;;;;2.67;72.37;100679.83;108792;1268;24485;-84
2024/03/21 01:05:07;;;;;;;;;;;;;;;2.64;72.44;100681.37;108832;1268;22527;-86
2024/03/21 01:07:55;;;;;;;;;;;;;;;2.61;72.44;100678.34;108865;1268;25475;-84
2024/03/21 01:10:47;;;;;;;;;;;;;;;2.60;72.47;100668.52;108796;1268;22504;-84
2024/03/21 01:13:35;;;;;;;;;;;;;;;2.58;72.67;100665.23;108736;1268;22596;-84
2024/03/21 01:16:23;;;;;;;;;;;;;;;2.56;72.74;100664.54;108908;1266;22532;-85
2024/03/21 01:19:11;;;;;;;;;;;;;;;2.54;72.82;100659.69;109114;1267;22600;-84
2024/03/21 01:21:59;;;;;;;;;;;;;;;2.53;72.82;100661.42;108898;1268;22504;-85
2024/03/21 01:24:48;;;;;;;;;;;;;;;2.52;72.97;100662.95;108791;1269;22646;-84
2024/03/21 01:27:35;;;;;;;;;;;;;;;2.50;73.04;100663.37;108658;1269;22493;-84
2024/03/21 01:30:22;;;;;;;;;;;;;;;2.48;73.05;100665.99;108974;1267;22535;-84
2024/03/21 01:33:10;;;;;;;;;;;;;;;2.46;73.28;100664.90;109073;1268;22507;-84
2024/03/21 01:35:57;;;;;;;;;;;;;;;2.44;73.41;100667.45;109048;1266;22708;-85
2024/03/21 01:38:45;;;;;;;;;;;;;;;2.42;73.37;100662.76;108931;1267;24936;-85
2024/03/21 01:41:32;;;;;;;;;;;;;;;2.40;73.43;100660.34;109029;1268;25253;-84
2024/03/21 01:44:19;;;;;;;;;;;;;;;2.38;73.58;100659.50;108950;1266;24193;-84
2024/03/21 01:47:07;;;;;;;;;;;;;;;2.35;73.81;100654.12;108639;1268;22504;-85
2024/03/21 01:49:55;;;;;;;;;;;;;;;2.31;74.11;100654.23;108805;1268;22532;-84
2024/03/21 01:52:43;;;;;;;;;;;;;;;2.29;74.48;100645.46;108964;1268;22519;-85
2024/03/21 01:55:30;;;;;;;;;;;;;;;2.26;74.41;100637.30;108973;1268;22542;-86
2024/03/21 01:58:18;;;;;;;;;;;;;;;2.24;74.83;100641.34;108848;1268;22596;-85
2024/03/21 02:01:25;;;;;;;;;;;;;;;2.20;75.03;100639.98;109122;1268;22583;-86
2024/03/21 02:04:12;;;;;;;;;;;;;;;2.17;75.29;100635.61;108975;1268;22538;-86
2024/03/21 02:06:59;;;;;;;;;;;;;;;2.16;75.40;100636.10;108834;1254;25260;-85
2024/03/21 02:09:49;;;;;;;;;;;;;;;2.14;75.49;100639.19;109001;1269;22542;-87
2024/03/21 02:12:43;;;;;;;;;;;;;;;2.11;75.37;100639.77;109035;1269;22504;-86
2024/03/21 02:15:31;;;;;;;;;;;;;;;2.11;75.31;100635.61;109013;1269;22576;-87
2024/03/21 02:18:19;;;;;;;;;;;;;;;2.11;75.30;100635.99;109042;1268;25359;-84
2024/03/21 02:22:35;;;;;;;;;;;;;;;2.10;75.28;100630.50;109045;1268;24234;-86
2024/03/21 02:24:14;;;;;;;;;;;;;;;2.09;75.16;100636.66;109040;1268;23467;-84
2024/03/21 02:27:01;;;;;;;;;;;;;;;2.06;75.31;100632.77;109069;1268;22545;-84
2024/03/21 02:33:53;;;;;;;;;;;;;;;2.04;75.27;100627.05;109030;1268;22513;-84
2024/03/21 02:36:39;;;;;;;;;;;;;;;2.03;75.41;100629.64;108940;1268;22571;-85
2024/03/21 02:39:27;;;;;;;;;;;;;;;2.01;75.57;100626.36;109157;1261;26409;-85
2024/03/21 02:42:15;;;;;;;;;;;;;;;1.99;75.63;100630.23;109628;1266;22565;-85
2024/03/21 02:45:02;;;;;;;;;;;;;;;1.98;75.72;100629.79;109683;1267;23239;-85
2024/03/21 02:47:49;;;;;;;;;;;;;;;1.95;75.97;100633.84;109606;1268;22533;-85
2024/03/21 02:50:38;;;;;;;;;;;;;;;1.93;76.01;100631.90;109695;1266;22519;-85
2024/03/21 02:53:26;;;;;;;;;;;;;;;1.93;75.99;100632.99;109488;1267;25413;-84
2024/03/21 02:56:13;;;;;;;;;;;;;;;1.93;76.07;100632.61;109881;1267;25269;-85
2024/03/21 02:59:02;;;;;;;;;;;;;;;1.91;76.41;100635.53;109420;1261;22653;-85
2024/03/21 03:01:50;;;;;;;;;;;;;;;1.86;76.49;100637.08;109282;1264;22528;-84
2024/03/21 03:04:37;;;;;;;;;;;;;;;1.86;76.41;100636.85;109302;1267;22575;-85
2024/03/21 03:07:24;;;;;;;;;;;;;;;1.87;76.58;100635.35;109956;1266;22654;-84
2024/03/21 03:10:12;;;;;;;;;;;;;;;1.89;76.60;100632.48;110876;1260;22569;-86
2024/03/21 03:12:59;;;;;;;;;;;;;;;1.90;76.70;100624.30;109570;1267;22657;-85
2024/03/21 03:15:48;;;;;;;;;;;;;;;1.93;76.99;100617.81;109819;1266;22533;-85
2024/03/21 03:18:34;;;;;;;;;;;;;;;1.93;77.41;100615.93;109377;1268;22543;-86
2024/03/21 03:21:21;;;;;;;;;;;;;;;1.92;77.55;100614.36;109323;1266;24354;-85
2024/03/21 03:24:09;;;;;;;;;;;;;;;1.94;77.95;100618.35;109720;1266;22538;-84
2024/03/21 03:26:56;;;;;;;;;;;;;;;1.96;78.11;100623.67;109553;1266;22535;-85
2024/03/21 03:29:43;;;;;;;;;;;;;;;1.97;78.43;100623.19;109702;1263;22534;-85
2024/03/21 03:32:32;;;;;;;;;;;;;;;1.99;78.33;100627.73;109252;1266;22632;-85
2024/03/21 03:35:40;;;;;;;;;;;;;;;2.02;78.40;100628.02;109414;1266;23887;-85
2024/03/21 03:38:28;;;;;;;;;;;;;;;2.04;78.70;100626.72;109465;1266;22917;-84
2024/03/21 03:41:16;;;;;;;;;;;;;;;2.06;78.74;100629.61;109654;1266;22537;-85
2024/03/21 03:44:04;;;;;;;;;;;;;;;2.10;78.72;100627.35;109440;1264;22503;-85
2024/03/21 03:46:51;;;;;;;;;;;;;;;2.13;78.75;100631.73;109383;1266;22515;-84
2024/03/21 03:49:37;;;;;;;;;;;;;;;2.15;78.69;100627.77;109686;1266;22543;-84
2024/03/21 03:52:25;;;;;;;;;;;;;;;2.18;78.63;100624.12;109328;1266;22536;-83
2024/03/21 03:55:12;;;;;;;;;;;;;;;2.19;78.86;100623.15;109133;1266;24488;-83
2024/03/21 03:57:59;;;;;;;;;;;;;;;2.21;79.22;100625.27;109127;1266;23376;-83
2024/03/21 04:00:54;;;;;;;;;;;;;;;2.22;79.13;100626.27;109053;1268;22619;-83
2024/03/21 04:03:41;;;;;;;;;;;;;;;2.24;79.44;100622.45;109152;1268;24999;-84
2024/03/21 04:06:28;;;;;;;;;;;;;;;2.25;79.46;100621.66;109370;1266;25368;-84
2024/03/21 04:09:15;;;;;;;;;;;;;;;2.27;79.62;100617.63;109343;1266;23179;-83
2024/03/21 04:12:02;;;;;;;;;;;;;;;2.29;79.58;100617.20;109382;1266;26112;-84
2024/03/21 04:14:51;;;;;;;;;;;;;;;2.32;79.59;100616.05;109172;1260;23294;-82
2024/03/21 04:17:38;;;;;;;;;;;;;;;2.32;79.83;100618.48;108922;1266;25123;-82
2024/03/21 04:20:27;;;;;;;;;;;;;;;2.33;79.95;100619.96;109032;1266;24703;-82
2024/03/21 04:23:13;;;;;;;;;;;;;;;2.35;80.07;100622.70;109295;1266;22513;-83
2024/03/21 04:26:01;;;;;;;;;;;;;;;2.38;80.07;100623.13;108927;1267;24312;-82
2024/03/21 04:28:47;;;;;;;;;;;;;;;2.41;80.03;100626.65;108922;1260;22538;-83
2024/03/21 04:31:34;;;;;;;;;;;;;;;2.42;80.18;100622.54;108844;1267;22664;-83
2024/03/21 04:34:21;;;;;;;;;;;;;;;2.43;80.19;100629.52;108584;1260;22535;-82
2024/03/21 04:37:11;;;;;;;;;;;;;;;2.43;80.38;100628.34;109004;1260;23122;-83
2024/03/21 04:39:58;;;;;;;;;;;;;;;2.42;80.63;100628.67;109143;1266;22496;-84
2024/03/21 04:42:45;;;;;;;;;;;;;;;2.42;80.73;100630.71;108696;1267;23710;-81
2024/03/21 04:45:33;;;;;;;;;;;;;;;2.42;80.80;100632.37;109289;1268;23248;-85
2024/03/21 04:48:20;;;;;;;;;;;;;;;2.40;80.99;100633.80;108905;1267;25250;-84
2024/03/21 04:51:07;;;;;;;;;;;;;;;2.39;81.27;100636.11;109124;1260;22526;-83
2024/03/21 04:53:54;;;;;;;;;;;;;;;2.40;81.71;100636.81;108821;1261;25195;-82
2024/03/21 04:56:41;;;;;;;;;;;;;;;2.40;81.56;100637.28;108896;1260;22507;-85
2024/03/21 04:59:28;;;;;;;;;;;;;;;2.42;81.58;100635.83;108919;1266;23002;-84
2024/03/21 05:02:15;;;;;;;;;;;;;;;2.44;81.70;100638.40;108982;1261;22623;-83
2024/03/21 05:05:02;;;;;;;;;;;;;;;2.46;81.70;100638.55;108835;1263;22601;-84
2024/03/21 05:07:49;;;;;;;;;;;;;;;2.49;81.71;100643.14;108901;1260;22601;-85
2024/03/21 05:10:36;;;;;;;;;;;;;;;2.52;81.77;100642.00;108929;1266;23460;-84
2024/03/21 05:13:23;;;;;;;;;;;;;;;2.54;82.03;100638.05;108876;1259;25195;-85
2024/03/21 05:16:09;;;;;;;;;;;;;;;2.56;82.13;100641.63;108901;1266;22540;-84
2024/03/21 05:18:56;;;;;;;;;;;;;;;2.58;82.24;100639.23;108679;1266;24263;-84
2024/03/21 05:21:42;;;;;;;;;;;;;;;2.60;82.23;100637.26;108611;1268;22621;-84
2024/03/21 05:24:29;;;;;;;;;;;;;;;2.63;82.20;100633.73;108797;1267;24312;-84
2024/03/21 05:27:19;;;;;;;;;;;;;;;2.65;82.33;100628.91;108975;1260;22520;-84
2024/03/21 05:30:07;;;;;;;;;;;;;;;2.68;82.75;100632.48;109105;1265;22667;-84
2024/03/21 05:32:53;;;;;;;;;;;;;;;2.72;82.74;100635.95;109095;1264;23933;-83
2024/03/21 05:35:40;;;;;;;;;;;;;;;2.76;82.67;100638.34;108839;1263;22894;-84
2024/03/21 05:38:27;;;;;;;;;;;;;;;2.81;82.51;100637.88;109007;1263;24397;-84
2024/03/21 05:41:14;;;;;;;;;;;;;;;2.84;82.70;100634.67;108790;1266;22524;-85
2024/03/21 05:44:01;;;;;;;;;;;;;;;2.88;82.84;100632.17;108878;1266;22760;-85
2024/03/21 05:46:48;;;;;;;;;;;;;;;2.91;83.00;100629.68;109031;1266;22521;-83
2024/03/21 05:49:35;;;;;;;;;;;;;;;2.96;83.07;100634.10;108786;1266;22502;-85
2024/03/21 05:52:21;;;;;;;;;;;;;;;3.00;83.06;100630.41;108987;1259;22543;-84
2024/03/21 05:55:09;;;;;;;;;;;;;;;3.04;83.17;100626.89;108911;1260;22548;-85
2024/03/21 05:57:58;;;;;;;;;;;;;;;3.08;83.09;100623.43;108947;1266;23695;-83
2024/03/21 06:00:52;;;;;;;;;;;;;;;3.12;83.09;100625.41;109154;1266;22490;-83
2024/03/21 06:03:39;;;;;;;;;;;;;;;3.18;83.43;100625.86;108941;1266;22667;-84
2024/03/21 06:06:26;;;;;;;;;;;;;;;3.22;83.40;100631.85;108907;1266;22500;-84
2024/03/21 06:09:14;;;;;;;;;;;;;;;3.27;83.55;100628.23;108881;1265;22564;-85
2024/03/21 06:12:02;;;;;;;;;;;;;;;3.32;83.76;100623.90;111641;1260;23374;-84
2024/03/21 06:14:48;;;;;;;;;;;;;;;3.37;83.91;100619.79;111717;1260;22523;-84
2024/03/21 06:17:35;;;;;;;;;;;;;;;3.43;84.06;100621.88;111723;1263;22447;-85
2024/03/21 06:20:21;;;;;;;;;;;;;;;3.49;83.96;100623.11;111655;1260;22411;-84
2024/03/21 06:23:08;;;;;;;;;;;;;;;3.55;83.91;100620.96;111590;1267;22450;-85
2024/03/21 06:25:57;;;;;;;;;;;;;;;3.61;83.88;100625.41;111627;1264;22433;-86
2024/03/21 06:28:43;;;;;;;;;;;;;;;3.69;83.69;100629.77;111622;1260;23403;-85
2024/03/21 06:31:30;;;;;;;;;;;;;;;3.77;83.59;100630.40;111436;1263;23336;-85
2024/03/21 06:34:17;;;;;;;;;;;;;;;3.85;83.48;100632.06;111629;1267;22438;-85
2024/03/21 06:37:04;;;;;;;;;;;;;;;3.92;83.57;100630.18;111673;1260;23364;-83
2024/03/21 06:39:50;;;;;;;;;;;;;;;4.00;83.60;100632.38;111349;1268;22598;-85
2024/03/21 06:42:37;;;;;;;;;;;;;;;4.11;83.71;100633.36;111521;1268;22406;-86
2024/03/21 06:45:23;;;;;;;;;;;;;;;4.19;83.49;100634.38;111632;1260;22431;-85
2024/03/21 06:48:10;;;;;;;;;;;;;;;4.28;83.50;100635.53;111632;1260;23658;-83
2024/03/21 06:50:57;;;;;;;;;;;;;;;4.37;83.51;100637.63;111469;1265;23321;-85
2024/03/21 06:53:45;;;;;;;;;;;;;;;4.46;83.35;100634.28;111644;1260;22469;-85
2024/03/21 06:56:31;;;;;;;;;;;;;;;4.56;83.50;100633.98;111642;1266;23338;-85
2024/03/21 06:59:18;;;;;;;;;;;;;;;4.65;83.35;100629.98;111348;1266;22439;-82
2024/03/21 07:02:05;;;;;;;;;;;;;;;4.75;83.29;100633.30;111711;1263;22992;-83
2024/03/21 07:04:52;;;;;;;;;;;;;;;4.85;83.18;100635.77;111646;1247;22517;-83
2024/03/21 07:07:38;;;;;;;;;;;;;;;4.95;83.03;100633.08;111674;1263;22412;-82
2024/03/21 07:10:25;;;;;;;;;;;;;;;5.06;83.31;100628.80;111898;1260;22431;-83
2024/03/21 07:13:12;;;;;;;;;;;;;;;5.16;83.12;100632.90;111603;1267;22519;-82
2024/03/21 07:15:59;;;;;;;;;;;;;;;5.26;82.89;100633.36;111794;1266;23214;-85
2024/03/21 07:18:46;;;;;;;;;;;;;;;5.35;82.83;100637.30;111288;1268;22526;-85
2024/03/21 07:21:34;;;;;;;;;;;;;;;5.46;82.66;100638.08;109387;1267;22564;-85
2024/03/21 07:24:21;;;;;;;;;;;;;;;5.54;82.59;100637.45;109294;1263;23863;-85
2024/03/21 07:27:08;;;;;;;;;;;;;;;5.63;82.60;100637.06;109218;1266;23448;-85
2024/03/21 07:29:55;;;;;;;;;;;;;;;5.71;82.38;100634.48;111478;1266;22433;-85
2024/03/21 07:32:42;;;;;;;;;;;;;;;5.80;82.65;100628.92;111646;1260;23248;-85
2024/03/21 07:35:29;;;;;;;;;;;;;;;5.90;82.57;100625.38;111467;1264;22411;-85
2024/03/21 07:38:15;;;;;;;;;;;;;;;6.00;82.62;100622.72;111658;1266;22422;-86
2024/03/21 07:41:03;;;;;;;;;;;;;;;6.10;82.49;100629.63;111502;1266;22473;-85
2024/03/21 07:43:50;;;;;;;;;;;;;;;6.19;82.37;100632.08;111635;1260;22441;-85
2024/03/21 07:46:36;;;;;;;;;;;;;;;6.30;82.33;100633.42;111299;1263;23265;-85
2024/03/21 07:49:23;;;;;;;;;;;;;;;6.39;82.37;100635.50;111510;1266;22531;-87
2024/03/21 07:52:10;;;;;;;;;;;;;;;6.49;82.49;100631.95;111642;1259;22910;-86
2024/03/21 07:54:57;;;;;;;;;;;;;;;6.62;82.21;100628.10;111843;1265;23194;-87
2024/03/21 07:57:43;;;;;;;;;;;;;;;6.74;82.13;100623.60;111207;1267;22440;-83
2024/03/21 08:00:30;;;;;;;;;;;;;;;6.86;82.17;100616.54;111491;1268;22407;-85
2024/03/21 08:03:16;;;;;;;;;;;;;;;7.01;82.00;100614.34;111519;1263;22482;-84
2024/03/21 08:06:04;;;;;;;;;;;;;;;7.15;81.82;100610.77;111655;1260;22457;-83
2024/03/21 08:08:50;;;;;;;;;;;;;;;7.31;81.65;100614.04;111509;1266;22453;-85
2024/03/21 08:11:38;;;;;;;;;;;;;;;7.45;81.19;100612.45;111509;1265;22434;-83
2024/03/21 08:14:26;;;;;;;;;;;;;;;7.59;81.06;100614.58;111812;1266;22385;-85
2024/03/21 08:17:17;;;;;;;;;;;;;;;7.74;80.83;100615.42;111664;1260;23261;-84
2024/03/21 08:20:06;;;;;;;;;;;;;;;7.88;80.53;100611.09;111281;1262;23222;-86
2024/03/21 08:22:53;;;;;;;;;;;;;;;8.01;80.17;100609.58;111655;1266;22476;-86
2024/03/21 08:25:41;;;;;;;;;;;;;;;8.15;79.97;100610.91;111311;1264;22406;-87
2024/03/21 08:28:28;;;;;;;;;;;;;;;8.26;79.94;100607.88;111676;1263;22447;-88
2024/03/21 08:31:16;;;;;;;;;;;;;;;8.38;79.84;100608.23;111521;1266;22469;-88
2024/03/21 08:34:03;;;;;;;;;;;;;;;8.50;79.78;100612.73;111743;1266;22876;-86
2024/03/21 08:36:50;;;;;;;;;;;;;;;8.63;79.62;100616.75;111273;1267;22438;-87
2024/03/21 08:39:37;;;;;;;;;;;;;;;8.78;79.49;100618.98;111310;1268;22421;-86
2024/03/21 08:42:24;;;;;;;;;;;;;;;8.94;79.38;100617.10;111186;1267;22417;-85
2024/03/21 08:45:11;;;;;;;;;;;;;;;9.09;79.11;100615.52;111853;1265;22406;-85
2024/03/21 08:47:59;;;;;;;;;;;;;;;9.25;78.68;100613.37;111739;1266;22410;-85
2024/03/21 08:50:48;;;;;;;;;;;;;;;9.41;78.30;100614.42;111670;1263;22461;-86
2024/03/21 08:53:37;;;;;;;;;;;;;;;9.58;78.24;100617.70;111439;1266;22893;-85
2024/03/21 08:56:25;;;;;;;;;;;;;;;9.72;77.68;100613.80;111555;1265;22399;-85
2024/03/21 08:59:12;;;;;;;;;;;;;;;9.86;77.47;100612.08;111674;1266;22431;-85
2024/03/21 09:02:04;;;;;;;;;;;;;;;10.01;77.11;100610.00;111542;1266;22589;-85
2024/03/21 09:04:52;;;;;;;;;;;;;;;10.16;77.18;100605.14;111314;1263;22430;-86
2024/03/21 09:07:40;;;;;;;;;;;;;;;10.30;76.80;100603.52;111333;1265;22490;-86
2024/03/21 09:10:30;;;;;;;;;;;;;;;10.42;76.25;100596.98;111384;1266;22496;-86
2024/03/21 09:13:18;;;;;;;;;;;;;;;10.52;76.28;100589.70;111715;1261;22441;-86
2024/03/21 09:16:07;;;;;;;;;;;;;;;10.63;76.08;100584.91;111360;1260;22414;-86
2024/03/21 09:18:55;;;;;;;;;;;;;;;10.74;75.81;100581.02;111604;1267;23332;-87
2024/03/21 09:21:44;;;;;;;;;;;;;;;10.88;75.69;100579.55;111614;1267;22418;-86
2024/03/21 09:24:31;;;;;;;;;;;;;;;11.02;75.15;100578.77;111332;1266;23128;-83
2024/03/21 09:27:18;;;;;;;;;;;;;;;11.16;74.91;100576.23;111466;1264;23225;-82
2024/03/21 09:30:06;;;;;;;;;;;;;;;11.28;74.56;100575.04;111542;1266;22457;-81
2024/03/21 09:32:53;;;;;;;;;;;;;;;11.40;73.95;100577.98;111477;1264;22493;-87
2024/03/21 09:35:39;;;;;;;;;;;;;;;11.52;74.01;100573.44;111505;1263;23417;-84
2024/03/21 09:38:26;;;;;;;;;;;;;;;11.64;73.05;100575.55;111655;1260;23093;-81
2024/03/21 09:41:13;;;;;;;;;;;;;;;11.75;72.67;100572.87;111648;1266;22429;-81
2024/03/21 09:44:01;;;;;;;;;;;;;;;11.88;72.29;100571.89;111626;1266;23193;-82
2024/03/21 09:46:47;;;;;;;;;;;;;;;11.98;72.07;100570.25;111621;1266;22436;-85
2024/03/21 09:49:34;;;;;;;;;;;;;;;12.09;71.98;100566.74;111671;1263;23601;-83
2024/03/21 09:52:21;;;;;;;;;;;;;;;12.20;71.23;100568.67;111652;1260;22425;-83
2024/03/21 09:55:13;;;;;;;;;;;;;;;12.28;70.66;100564.88;111631;1260;22448;-86
2024/03/21 09:57:59;;;;;;;;;;;;;;;12.37;70.53;100565.96;110939;1266;26029;-83
2024/03/21 10:00:47;;;;;;;;;;;;;;;12.49;69.92;100570.02;109305;1267;25595;-86
2024/03/21 10:03:33;;;;;;;;;;;;;;;12.58;70.02;100567.34;109144;1268;26173;-83
2024/03/21 10:06:20;;;;;;;;;;;;;;;12.67;69.93;100566.52;109468;1267;23119;-84
2024/03/21 10:09:07;;;;;;;;;;;;;;;12.76;69.03;100566.02;109393;1266;23455;-85
2024/03/21 10:11:54;;;;;;;;;;;;;;;12.81;68.97;100563.45;109371;1260;25243;-83
2024/03/21 10:14:41;;;;;;;;;;;;;;;12.87;68.76;100563.20;109340;1263;23905;-83
2024/03/21 10:17:28;;;;;;;;;;;;;;;12.93;68.30;100559.31;109273;1266;22527;-83
2024/03/21 10:20:15;;;;;;;;;;;;;;;13.00;67.80;100556.24;109507;1256;22552;-86
2024/03/21 10:23:02;;;;;;;;;;;;;;;13.06;68.00;100553.56;109414;1260;22752;-84
2024/03/21 10:25:49;;;;;;;;;;;;;;;13.13;67.57;100555.59;110190;1267;22553;-90
2024/03/21 10:28:39;;;;;;;;;;;;;;;13.20;67.66;100553.64;111436;1267;22546;-85
2024/03/21 10:31:28;;;;;;;;;;;;;;;13.27;67.35;100552.00;111286;1267;22539;-83
2024/03/21 10:34:16;;;;;;;;;;;;;;;13.37;67.04;100547.10;110924;1256;22980;-86
2024/03/21 10:37:04;;;;;;;;;;;;;;;13.46;66.60;100546.39;110784;1270;22829;-84
2024/03/21 10:39:55;;;;;;;;;;;;;;;13.58;66.37;100549.02;110648;1271;22572;-86
2024/03/21 10:42:45;;;;;;;;;;;;;;;13.66;66.23;100548.31;110707;1271;22552;-85
2024/03/21 10:45:34;;;;;;;;;;;;;;;13.75;65.38;100542.84;111169;1272;22406;-86
2024/03/21 10:48:28;;;;;;;;;;;;;;;13.84;65.24;100542.17;111309;1249;22532;-84
2024/03/21 10:51:17;;;;;;;;;;;;;;;13.94;65.37;100540.73;111400;1248;22517;-85
2024/03/21 10:54:12;;;;;;;;;;;;;;;14.04;64.47;100540.73;111717;1248;22527;31
2024/03/21 10:57:00;;;;;;;;;;;;;;;14.19;64.20;100546.95;111098;1265;22475;-88
2024/03/21 10:59:59;;;;;;;;;;;;;;;14.32;63.88;100547.56;106019;1258;10140779;-89
2024/03/21 11:02:51;;;;;;;;;;;;;;;14.42;63.55;100542.29;111036;1255;22464;-83
2024/03/21 11:05:39;;;;;;;;;;;;;;;14.50;63.38;100536.63;111217;1257;22496;-83
2024/03/21 11:08:27;;;;;;;;;;;;;;;14.61;63.11;100529.91;111222;1258;22483;-83
2024/03/21 11:11:16;;;;;;;;;;;;;;;14.71;62.46;100525.95;111157;1254;22664;-86
2024/03/21 11:14:06;;;;;;;;;;;;;;;14.81;62.26;100527.20;111001;1257;22556;-84
2024/03/21 11:16:54;;;;;;;;;;;;;;;14.90;61.72;100526.33;111022;1269;22549;-86
2024/03/21 11:19:42;;;;;;;;;;;;;;;15.01;62.06;100523.08;110869;1270;22815;-88
2024/03/21 11:22:29;;;;;;;;;;;;;;;15.08;60.69;100522.90;110782;1267;23255;-88
2024/03/21 11:25:16;;;;;;;;;;;;;;;15.11;60.92;100519.50;110596;1270;23916;-90
2024/03/21 11:28:04;;;;;;;;;;;;;;;15.15;61.13;100518.59;110632;1269;22448;-86
2024/03/21 11:30:52;;;;;;;;;;;;;;;15.22;60.25;100511.05;110706;1271;22559;-91
2024/03/21 11:33:39;;;;;;;;;;;;;;;15.32;60.28;100515.90;110756;1271;22520;-90
2024/03/21 11:36:27;;;;;;;;;;;;;;;15.43;59.87;100508.76;110583;1269;22582;-91
2024/03/21 11:39:16;;;;;;;;;;;;;;;15.51;59.35;100508.08;110713;1269;22635;-89
2024/03/21 11:42:04;;;;;;;;;;;;;;;15.56;58.36;100511.88;110520;1266;24528;-90
2024/03/21 11:44:52;;;;;;;;;;;;;;;15.61;58.02;100509.23;110644;1266;22568;-88
2024/03/21 11:47:40;;;;;;;;;;;;;;;15.66;58.02;100508.13;110952;1257;22546;-89
2024/03/21 11:50:28;;;;;;;;;;;;;;;15.73;57.99;100504.30;110785;1265;22633;-87
2024/03/21 11:53:15;;;;;;;;;;;;;;;15.79;57.57;100505.64;110915;1267;23576;-88
2024/03/21 11:56:02;;;;;;;;;;;;;;;15.80;56.73;100503.69;109101;1266;25220;-85
2024/03/21 11:58:50;;;;;;;;;;;;;;;15.80;56.06;100505.73;108828;1263;22506;-86
2024/03/21 12:01:36;;;;;;;;;;;;;;;15.85;56.30;100503.21;108927;1269;22526;-85
2024/03/21 12:04:23;;;;;;;;;;;;;;;15.94;55.76;100499.98;109015;1263;22750;-85
2024/03/21 12:07:11;;;;;;;;;;;;;;;15.99;55.27;100499.58;109061;1263;22541;-85
2024/03/21 12:09:57;;;;;;;;;;;;;;;16.03;55.32;100494.93;108993;1270;22747;-85
2024/03/21 12:12:44;;;;;;;;;;;;;;;16.07;55.23;100494.39;109043;1270;22517;-84
2024/03/21 12:15:30;;;;;;;;;;;;;;;16.14;55.30;100494.05;109496;1269;22554;-85
2024/03/21 12:18:19;;;;;;;;;;;;;;;16.21;54.73;100490.48;109456;1261;24954;-86
2024/03/21 12:21:07;;;;;;;;;;;;;;;16.23;54.25;100490.74;109428;1270;22541;-86
2024/03/21 12:23:53;;;;;;;;;;;;;;;16.23;53.92;100495.30;109406;1267;22545;-85
2024/03/21 12:26:40;;;;;;;;;;;;;;;16.18;53.85;100491.92;109218;1267;22555;-85
2024/03/21 12:29:27;;;;;;;;;;;;;;;16.15;53.97;100491.61;109316;1266;22471;-85
2024/03/21 12:32:13;;;;;;;;;;;;;;;16.10;53.62;100493.30;109327;1270;22547;-83
2024/03/21 12:35:00;;;;;;;;;;;;;;;16.06;53.55;100493.77;109513;1267;22493;-85
2024/03/21 12:37:50;;;;;;;;;;;;;;;16.02;53.57;100491.77;109059;1269;22552;-85
2024/03/21 12:40:37;;;;;;;;;;;;;;;15.98;53.63;100488.38;109384;1270;24190;-86
2024/03/21 12:43:24;;;;;;;;;;;;;;;15.95;55.03;100485.09;109599;1263;22530;-85
2024/03/21 12:46:10;;;;;;;;;;;;;;;15.91;55.41;100486.98;109268;1269;22545;-85
2024/03/21 12:48:57;;;;;;;;;;;;;;;15.88;55.48;100486.88;109177;1270;22515;-85
2024/03/21 12:51:44;;;;;;;;;;;;;;;15.87;55.46;100482.38;109304;1271;24236;-85
2024/03/21 12:54:31;;;;;;;;;;;;;;;15.85;55.10;100487.49;108766;1269;22523;-85
2024/03/21 12:57:18;;;;;;;;;;;;;;;15.79;55.39;100480.51;108893;1263;22535;-85
2024/03/21 13:00:06;;;;;;;;;;;;;;;15.75;56.35;100477.08;109325;1263;22895;-85
2024/03/21 13:02:53;;;;;;;;;;;;;;;15.74;56.51;100480.20;111157;1263;23351;-85
2024/03/21 13:05:40;;;;;;;;;;;;;;;15.72;55.57;100481.11;111068;1269;22467;-85
2024/03/21 13:08:26;;;;;;;;;;;;;;;15.65;55.75;100479.88;111128;1267;23354;-85
2024/03/21 13:11:12;;;;;;;;;;;;;;;15.64;56.01;100476.45;111152;1266;22438;-86
2024/03/21 13:13:59;;;;;;;;;;;;;;;15.62;56.23;100476.89;111145;1269;23625;-86
2024/03/21 13:16:47;;;;;;;;;;;;;;;15.64;56.63;100470.66;111141;1263;22423;-85
2024/03/21 13:19:34;;;;;;;;;;;;;;;15.62;56.19;100474.55;111169;1270;22434;-86
2024/03/21 13:22:22;;;;;;;;;;;;;;;15.61;56.49;100477.66;111141;1270;23274;-85
2024/03/21 13:25:10;;;;;;;;;;;;;;;15.59;55.63;100480.94;111209;1263;23382;-86
2024/03/21 13:27:56;;;;;;;;;;;;;;;15.57;55.99;100487.58;111244;1259;22503;-85
2024/03/21 13:30:44;;;;;;;;;;;;;;;15.54;55.68;100483.94;111076;1271;22402;-85
2024/03/21 13:33:32;;;;;;;;;;;;;;;15.52;55.72;100483.48;111177;1270;22463;-86
2024/03/21 13:36:20;;;;;;;;;;;;;;;15.51;56.01;100481.13;111146;1263;23260;-85
2024/03/21 13:39:09;;;;;;;;;;;;;;;15.51;55.70;100480.88;111190;1263;22508;-86
2024/03/21 13:41:59;;;;;;;;;;;;;;;15.51;55.75;100487.52;111179;1266;22417;-85
2024/03/21 13:44:46;;;;;;;;;;;;;;;15.49;55.57;100485.93;111170;1266;22433;-86
2024/03/21 13:47:34;;;;;;;;;;;;;;;15.49;55.79;100485.66;111190;1268;23403;-85
2024/03/21 13:50:20;;;;;;;;;;;;;;;15.52;55.96;100488.65;111053;1268;23675;-85
2024/03/21 13:53:07;;;;;;;;;;;;;;;15.50;55.89;100482.55;111172;1269;23604;-85
2024/03/21 13:55:54;;;;;;;;;;;;;;;15.48;56.01;100481.89;110949;1269;22474;-85
2024/03/21 13:58:40;;;;;;;;;;;;;;;15.45;55.85;100480.64;111059;1270;22448;-85
2024/03/21 14:01:27;;;;;;;;;;;;;;;15.41;55.91;100477.95;111153;1262;22507;-85
2024/03/21 14:04:14;;;;;;;;;;;;;;;15.36;55.73;100473.63;111166;1263;22643;-86
2024/03/21 14:07:01;;;;;;;;;;;;;;;15.28;55.74;100468.89;111199;1270;22485;-86
2024/03/21 14:09:48;;;;;;;;;;;;;;;15.22;55.87;100464.58;110924;1271;22391;-85
2024/03/21 14:12:35;;;;;;;;;;;;;;;15.22;55.79;100467.80;111087;1271;22542;-86
2024/03/21 14:15:22;;;;;;;;;;;;;;;15.23;55.96;100460.80;111185;1263;22523;-85
2024/03/21 14:18:09;;;;;;;;;;;;;;;15.20;55.94;100463.44;111187;1267;22462;-86
2024/03/21 14:20:56;;;;;;;;;;;;;;;15.17;55.97;100458.88;111175;1269;23484;-85